< < Back
Terminal Aerodrome Forecast


Current Version              Previous Versions:   1  2  3  4  5  6  7  8  9  

Terminal Aerodrome Forecast

589
FTUS42 KTAE 171200 AAA
TAFABY
TAF AMD
KABY 171218Z 1712/1812 00000KT P6SM SKC
     FM171600 33005KT P6SM SCT050
     FM180300 00000KT P6SM SKC=

Latest METAR

887
SAUS70 KWBC 171500 RRC
MTRABY
METAR KABY 171453Z 06006KT 10SM CLR 28/22 A2998 RMK AO2 SLP148 T02780217
50003


USA.gov is the U.S. government's official web portal to all federal, state and local government web resources and services.